Olaton, KY (42361)

3:10 PM CST on February 08, 2016 (GMT -0600)
Snowball Hill | | Change Station
CLOSE
Current Station
Personal Weather Station
Location: Rosine, KY
Elevation: 548 ft
Nearby Weather Stations
Active Advisory: Special Statement

Elev 548 ft 37.42 °N, 86.74 °W | Updated 10 minutes ago

Snow
Snow
29.8 °F
Feels Like 26 °F
N
3.7
Wind Variable Wind from WSW

Today
High -- | Low -- °F
--% Chance of Precip.
Yesterday
High -- | Low -- °F
Precip. -- in
Pressure 29.82 in
Visibility 0.2 miles
Clouds Mostly Cloudy 200 ft
Overcast 900 ft
Windchill 26 °F
Dew Point 28 °F
Humidity 95%
Rainfall 0.05 in
Snow Depth Not available.
6:44 AM 5:18 PM
New Moon, 0% visible
SPECI KOWB 082103Z 32014KT 1/4SM SN FZFG BKN002 OVC009 M01/M02 A2982 RMK AO2 BKN V SCT P0000
Pressure 29.82 in
Visibility 0.2 miles
Clouds Mostly Cloudy 200 ft
Overcast 900 ft
Windchill 26 °F
Dew Point 28 °F
Humidity 95%
Rainfall 0.05 in
Snow Depth Not available.
6:44 AM 5:18 PM
New Moon, 0% visible
SPECI KOWB 082103Z 32014KT 1/4SM SN FZFG BKN002 OVC009 M01/M02 A2982 RMK AO2 BKN V SCT P0000

10-Day Weather Forecast

Almanac

Astronomy

Feb. 08, 2016 Rise Set
Actual Time
Civil Twilight
Nautical Twilight
Astronomical Twilight
Moon
Length of Visible Light
Length of Day
Tomorrow will be .
, % of the Moon is Illuminated

Today's Extremes

State Highs State Lows

Community

WunderPhotos

Upload Photos

1,891,514 photos uploaded!

WunderBlog® & News

Nearby

Air Quality

  Air Quality AQ Index Pollutant
Not available.

Snow Depth

Station Depth Elevation

Earthquake Activity

City Distance Mag. Time & Date
Minimum magnitude displayed is 2.5.

Coastal Water Temperatures

Place Temperature

Stations

Nearby Weather Stations

Station Location Temp. Windchill Dew Point Humidity Wind Precip. Elev Updated Type
                   

Watches & Warnings

Special Statement
Issued: 2:54 PM CST Feb. 8, 2016 – National Weather Service

... Snow showers this afternoon through Tuesday evening...

Colder air will filter into the region late this afternoon
producing scattered to numerous moderate snow showers through at
least Tuesday evening. Each passing snow shower may quickly
produce a light coating of snow creating slick spots especially on
untreated roadways. Overall up to 2 inches of snow is possible
through Tuesday evening.. in addition... gusty winds combined with
the snow showers may cause reductions in visibility at times. Use
caution if planning to travel this evening through Tuesday
evening.


Rjs